createdAt,value
2022-08-18T00:01:47.596Z,26.74
2022-08-18T00:04:34.804Z,26.74
2022-08-18T00:07:02.607Z,26.73
2022-08-18T00:09:32.572Z,26.73
2022-08-18T00:12:01.991Z,26.73
2022-08-18T00:14:28.947Z,26.74
2022-08-18T00:16:55.542Z,26.74
2022-08-18T00:19:45.933Z,26.73
2022-08-18T00:22:14.814Z,26.75
2022-08-18T00:24:48.102Z,26.75
2022-08-18T00:27:19.547Z,26.73
2022-08-18T00:29:48.971Z,26.71
2022-08-18T00:32:19.795Z,26.68
2022-08-18T00:34:46.307Z,26.68
2022-08-18T00:37:12.823Z,26.67
2022-08-18T00:39:45.997Z,26.66
2022-08-18T00:42:28.685Z,26.64
2022-08-18T00:45:01.890Z,26.63
2022-08-18T00:47:41.360Z,26.64
2022-08-18T00:50:16.516Z,26.60
2022-08-18T00:52:51.678Z,26.59
2022-08-18T00:55:19.430Z,26.60
2022-08-18T00:57:48.436Z,26.56
2022-08-18T01:00:15.336Z,26.52
2022-08-18T01:02:49.796Z,26.48
2022-08-18T01:05:41.126Z,26.43
2022-08-18T01:08:11.722Z,26.44
2022-08-18T01:10:39.543Z,26.42
2022-08-18T01:13:06.818Z,26.39
2022-08-18T01:15:34.036Z,26.37
2022-08-18T01:18:22.976Z,26.36
2022-08-18T01:21:27.354Z,26.32
2022-08-18T01:23:55.167Z,26.33
2022-08-18T01:26:24.428Z,26.29
2022-08-18T01:28:52.310Z,26.26
2022-08-18T01:31:38.291Z,26.20
2022-08-18T01:34:10.442Z,26.20
2022-08-18T01:36:40.645Z,26.19
2022-08-18T01:39:09.451Z,26.15
2022-08-18T01:41:36.160Z,26.15
2022-08-18T01:44:03.497Z,26.12
2022-08-18T01:46:33.657Z,26.12
2022-08-18T01:49:01.099Z,26.11
2022-08-18T01:51:39.944Z,26.09
2022-08-18T01:54:12.307Z,26.08
2022-08-18T01:56:40.771Z,26.06
2022-08-18T01:59:10.405Z,26.05
2022-08-18T02:01:43.304Z,26.04
2022-08-18T02:04:34.398Z,26.01
2022-08-18T02:07:05.464Z,25.99
2022-08-18T02:09:33.562Z,25.96
2022-08-18T02:12:01.183Z,25.92
2022-08-18T02:14:27.834Z,25.89
2022-08-18T02:17:02.117Z,25.85
2022-08-18T02:19:33.977Z,25.78
2022-08-18T02:22:00.592Z,25.77
2022-08-18T02:24:27.152Z,25.72
2022-08-18T02:26:53.682Z,25.70
2022-08-18T02:29:20.175Z,25.68
2022-08-18T02:31:46.699Z,25.66
2022-08-18T02:34:13.255Z,25.64
2022-08-18T02:36:39.724Z,25.63
2022-08-18T02:39:06.250Z,25.61
2022-08-18T02:41:33.110Z,25.61
2022-08-18T02:44:00.172Z,25.60
2022-08-18T02:46:29.296Z,25.61
2022-08-18T02:48:57.253Z,25.61
2022-08-18T02:51:25.953Z,25.61
2022-08-18T02:53:53.847Z,25.62
2022-08-18T02:56:40.242Z,25.60
2022-08-18T02:59:13.696Z,25.60
2022-08-18T03:01:47.722Z,25.56
2022-08-18T03:04:17.516Z,25.55
2022-08-18T03:06:45.384Z,25.50
2022-08-18T03:09:15.264Z,25.46
2022-08-18T03:11:43.524Z,25.41
2022-08-18T03:14:11.465Z,25.38
2022-08-18T03:16:54.521Z,25.40
2022-08-18T03:19:31.906Z,25.33
2022-08-18T03:22:03.278Z,25.33
2022-08-18T03:24:32.169Z,25.28
2022-08-18T03:26:58.958Z,25.25
2022-08-18T03:29:31.334Z,25.22
2022-08-18T03:31:59.415Z,25.20
2022-08-18T03:34:26.002Z,25.18
2022-08-18T03:36:52.570Z,25.18
2022-08-18T03:39:20.015Z,25.16
2022-08-18T03:41:58.241Z,25.18
2022-08-18T03:44:27.855Z,25.17
2022-08-18T03:46:54.291Z,25.19
2022-08-18T03:49:20.989Z,25.24
2022-08-18T03:51:48.622Z,25.24
2022-08-18T03:54:17.857Z,25.23
2022-08-18T03:56:46.705Z,25.25
2022-08-18T03:59:17.951Z,25.25
2022-08-18T04:01:45.921Z,25.27
2022-08-18T04:04:16.717Z,25.28
2022-08-18T04:06:55.795Z,25.27
2022-08-18T04:09:24.679Z,25.30
2022-08-18T04:11:51.952Z,25.31
2022-08-18T04:14:21.627Z,25.35
2022-08-18T04:16:49.199Z,25.36
2022-08-18T04:19:26.554Z,25.39
2022-08-18T04:21:56.436Z,25.40
2022-08-18T04:24:23.383Z,25.42
2022-08-18T04:26:50.110Z,25.42
2022-08-18T04:29:21.178Z,25.40
2022-08-18T04:31:49.400Z,25.38
2022-08-18T04:34:16.409Z,25.39
2022-08-18T04:36:43.131Z,25.38
2022-08-18T04:39:11.671Z,25.37
2022-08-18T04:41:38.760Z,25.40
2022-08-18T04:44:08.618Z,25.43
2022-08-18T04:46:40.049Z,25.43
2022-08-18T04:49:08.097Z,25.44
2022-08-18T04:52:37.140Z,25.45
2022-08-18T04:54:24.926Z,25.49
2022-08-18T04:56:51.657Z,25.52
2022-08-18T04:59:19.286Z,25.54
2022-08-18T05:01:48.176Z,25.55
2022-08-18T05:04:16.883Z,25.58
2022-08-18T05:06:43.991Z,25.62
2022-08-18T05:09:13.299Z,25.67
2022-08-18T05:11:44.492Z,25.67
2022-08-18T05:14:11.729Z,25.67
2022-08-18T05:16:47.846Z,25.66
2022-08-18T05:19:27.264Z,25.64
2022-08-18T05:22:17.167Z,25.66
2022-08-18T05:24:45.398Z,25.66
2022-08-18T05:27:13.033Z,25.64
2022-08-18T05:29:42.001Z,25.65
2022-08-18T05:32:38.274Z,25.65
2022-08-18T05:35:33.319Z,25.60
2022-08-18T05:38:24.475Z,25.59
2022-08-18T05:41:14.029Z,25.59
2022-08-18T05:43:52.119Z,25.60
2022-08-18T05:46:22.009Z,25.61
2022-08-18T05:48:48.796Z,25.63
2022-08-18T05:51:28.125Z,25.60
2022-08-18T05:54:13.169Z,25.61
2022-08-18T05:56:49.013Z,25.61
2022-08-18T05:59:31.670Z,25.59
2022-08-18T06:02:08.620Z,25.57
2022-08-18T06:04:44.380Z,25.57
2022-08-18T06:07:15.818Z,25.58
2022-08-18T06:09:50.794Z,25.56
2022-08-18T06:12:33.526Z,25.53
2022-08-18T06:15:11.793Z,25.54
2022-08-18T06:17:59.023Z,25.54
2022-08-18T06:20:34.589Z,25.58
2022-08-18T06:23:06.248Z,25.60
2022-08-18T06:29:38.389Z,25.74
2022-08-18T06:32:52.340Z,25.71
2022-08-18T06:42:41.020Z,25.83
2022-08-18T06:45:12.911Z,25.81
2022-08-18T06:55:38.019Z,25.87
2022-08-18T06:58:21.426Z,25.87
2022-08-18T07:01:36.637Z,25.82
2022-08-18T07:04:03.315Z,25.88
2022-08-18T07:06:59.641Z,25.84
2022-08-18T07:09:33.888Z,25.82
2022-08-18T07:12:09.145Z,25.81
2022-08-18T07:14:50.594Z,25.79
2022-08-18T07:17:43.131Z,25.81
2022-08-18T07:20:25.101Z,25.80
2022-08-18T07:22:56.798Z,25.84
2022-08-18T07:25:37.968Z,25.85
2022-08-18T07:28:07.996Z,25.89
2022-08-18T07:30:37.793Z,25.92
2022-08-18T07:33:22.574Z,25.94
2022-08-18T07:35:57.003Z,25.99
2022-08-18T07:38:51.764Z,26.00
2022-08-18T07:41:30.521Z,26.08
2022-08-18T07:44:13.559Z,26.12
2022-08-18T07:47:21.853Z,26.15
2022-08-18T07:50:16.508Z,26.24
2022-08-18T07:52:47.019Z,26.25
2022-08-18T07:55:24.511Z,26.27
2022-08-18T07:58:03.655Z,26.28
2022-08-18T08:03:32.650Z,26.36
2022-08-18T08:06:14.992Z,26.36
2022-08-18T08:08:56.938Z,26.40
2022-08-18T08:26:37.044Z,26.67
2022-08-18T08:29:27.739Z,26.65
2022-08-18T08:31:57.587Z,26.68
2022-08-18T08:34:35.249Z,26.69
2022-08-18T08:37:05.355Z,26.70
2022-08-18T08:39:54.061Z,26.69
2022-08-18T08:42:37.462Z,26.72
2022-08-18T08:45:31.040Z,26.77
2022-08-18T08:48:09.228Z,26.85
2022-08-18T08:50:45.378Z,26.93
2022-08-18T08:53:34.223Z,27.01
2022-08-18T08:56:09.701Z,27.07
2022-08-18T08:58:51.429Z,27.15
2022-08-18T09:01:34.727Z,27.22
2022-08-18T09:04:19.606Z,27.31
2022-08-18T09:07:08.265Z,27.34
2022-08-18T09:09:56.483Z,27.38
2022-08-18T09:12:44.836Z,27.43
2022-08-18T09:15:29.528Z,27.44
2022-08-18T09:18:05.298Z,27.45
2022-08-18T09:21:05.274Z,27.46
2022-08-18T09:23:46.828Z,27.52
2022-08-18T09:26:39.980Z,27.54
2022-08-18T09:29:45.495Z,27.57
2022-08-18T09:32:23.031Z,27.62
2022-08-18T09:35:08.909Z,27.65
2022-08-18T09:38:13.508Z,27.67
2022-08-18T09:41:17.665Z,27.74
2022-08-18T09:44:11.933Z,27.80
2022-08-18T09:46:48.024Z,27.84
2022-08-18T09:49:24.879Z,27.85
2022-08-18T09:51:56.085Z,27.87
2022-08-18T09:54:25.626Z,27.88
2022-08-18T09:56:55.802Z,27.88
2022-08-18T10:02:30.112Z,27.90
2022-08-18T10:05:15.510Z,27.95
2022-08-18T10:07:45.064Z,28.03
2022-08-18T10:11:00.726Z,28.07
2022-08-18T10:13:49.627Z,28.19
2022-08-18T10:16:38.242Z,28.24
2022-08-18T10:19:33.844Z,28.31
2022-08-18T10:22:09.340Z,28.31
2022-08-18T10:24:38.110Z,28.34
2022-08-18T10:27:12.014Z,28.35
2022-08-18T10:29:46.439Z,28.37
2022-08-18T10:32:14.115Z,28.45
2022-08-18T10:34:51.858Z,28.48
2022-08-18T10:37:19.409Z,28.56
2022-08-18T10:40:04.651Z,28.63
2022-08-18T10:43:15.003Z,28.71
2022-08-18T10:48:40.337Z,28.87
2022-08-18T10:55:00.839Z,28.96
2022-08-18T10:58:00.503Z,29.02
2022-08-18T11:00:45.226Z,29.09
2022-08-18T11:06:27.811Z,29.21
2022-08-18T11:09:01.100Z,29.21
2022-08-18T11:12:01.580Z,29.21
2022-08-18T11:14:59.629Z,29.23
2022-08-18T11:17:40.540Z,29.28
2022-08-18T11:20:13.117Z,29.34
2022-08-18T11:22:56.408Z,29.35
2022-08-18T11:25:25.023Z,29.41
2022-08-18T11:27:54.768Z,29.47
2022-08-18T11:30:31.022Z,29.50
2022-08-18T11:33:02.568Z,29.56
2022-08-18T11:35:34.236Z,29.60
2022-08-18T11:38:12.332Z,29.65
2022-08-18T11:43:40.937Z,29.81
2022-08-18T11:46:29.552Z,29.78
2022-08-18T11:48:59.977Z,29.84
2022-08-18T11:51:32.618Z,29.85
2022-08-18T11:54:00.994Z,29.89
2022-08-18T11:56:32.401Z,29.90
2022-08-18T11:59:52.581Z,29.90
2022-08-18T12:02:20.638Z,29.96
2022-08-18T12:04:52.866Z,29.96
2022-08-18T12:07:33.862Z,29.93
2022-08-18T12:10:26.505Z,29.94
2022-08-18T12:12:57.562Z,29.99
2022-08-18T12:15:29.574Z,30.02
2022-08-18T12:18:11.051Z,30.07
2022-08-18T12:20:52.446Z,30.14
2022-08-18T12:23:18.948Z,30.19
2022-08-18T12:25:45.420Z,30.25
2022-08-18T12:28:12.070Z,30.31
2022-08-18T12:30:42.032Z,30.40
2022-08-18T12:33:10.500Z,30.48
2022-08-18T12:35:41.997Z,30.55
2022-08-18T12:38:13.508Z,30.60
2022-08-18T12:40:41.896Z,30.62
2022-08-18T12:43:09.095Z,30.66
2022-08-18T12:56:36.828Z,31.08
2022-08-18T12:59:05.929Z,31.11
2022-08-18T13:01:33.643Z,31.17
2022-08-18T13:04:12.575Z,31.22
2022-08-18T13:06:59.905Z,31.27
2022-08-18T13:09:35.143Z,31.32
2022-08-18T13:12:18.398Z,31.37
2022-08-18T13:14:46.139Z,31.40
2022-08-18T13:17:32.669Z,31.41
2022-08-18T13:20:09.559Z,31.46
2022-08-18T13:22:40.857Z,31.47
2022-08-18T13:25:09.894Z,31.49
2022-08-18T13:27:37.577Z,31.48
2022-08-18T13:30:31.020Z,31.47
2022-08-18T13:33:02.386Z,31.53
2022-08-18T13:35:38.114Z,31.54
2022-08-18T13:38:15.649Z,31.57
2022-08-18T13:40:48.546Z,31.59
2022-08-18T13:43:17.453Z,31.62
2022-08-18T13:45:46.966Z,31.65
2022-08-18T13:48:19.807Z,31.66
2022-08-18T13:50:47.037Z,31.67
2022-08-18T13:53:19.842Z,31.66
2022-08-18T13:55:46.786Z,31.68
2022-08-18T13:58:17.592Z,31.67
2022-08-18T14:00:52.416Z,31.68
2022-08-18T14:03:42.345Z,31.70
2022-08-18T14:06:11.590Z,31.70
2022-08-18T14:08:40.308Z,31.68
2022-08-18T14:11:07.040Z,31.63
2022-08-18T14:13:38.132Z,31.59
2022-08-18T14:16:10.959Z,31.55
2022-08-18T14:18:42.815Z,31.51
2022-08-18T14:21:30.841Z,31.47
2022-08-18T14:24:15.573Z,31.44
2022-08-18T14:26:50.975Z,31.39
2022-08-18T14:29:45.529Z,31.35
2022-08-18T14:32:06.530Z,31.34
2022-08-18T14:34:33.051Z,31.35
2022-08-18T14:36:59.586Z,31.34
2022-08-18T14:39:26.128Z,31.35
2022-08-18T14:41:56.162Z,31.37
2022-08-18T14:44:25.471Z,31.39
2022-08-18T14:46:58.482Z,31.41
2022-08-18T14:49:28.660Z,31.40
2022-08-18T14:52:00.593Z,31.39
2022-08-18T14:54:28.693Z,31.39
2022-08-18T14:56:59.841Z,31.37
2022-08-18T14:59:28.409Z,31.37
2022-08-18T15:01:55.074Z,31.39
2022-08-18T15:04:21.853Z,31.41
2022-08-18T15:06:56.365Z,31.43
2022-08-18T15:09:27.431Z,31.45
2022-08-18T15:11:56.280Z,31.46
2022-08-18T15:14:26.664Z,31.46
2022-08-18T15:17:11.997Z,31.43
2022-08-18T15:25:58.948Z,31.45
2022-08-18T15:28:27.888Z,31.43
2022-08-18T15:33:41.999Z,31.42
2022-08-18T15:36:10.237Z,31.41
2022-08-18T15:38:36.917Z,31.42
2022-08-18T15:41:06.146Z,31.45
2022-08-18T15:43:45.803Z,31.47
2022-08-18T15:46:13.989Z,31.51
2022-08-18T15:48:43.670Z,31.54
2022-08-18T15:51:11.703Z,31.54
2022-08-18T15:53:44.592Z,31.54
2022-08-18T15:56:14.615Z,31.53
2022-08-18T15:58:41.122Z,31.53
2022-08-18T16:01:29.751Z,31.51
2022-08-18T16:03:56.712Z,31.51
2022-08-18T16:06:27.682Z,31.48
2022-08-18T16:09:00.356Z,31.47
2022-08-18T16:11:29.203Z,31.49
2022-08-18T16:13:58.827Z,31.52
2022-08-18T16:16:29.253Z,31.50
2022-08-18T16:19:04.457Z,31.48
2022-08-18T16:21:31.145Z,31.49
2022-08-18T16:23:58.258Z,31.48
2022-08-18T16:26:24.973Z,31.48
2022-08-18T16:28:52.888Z,31.49
2022-08-18T16:31:26.273Z,31.50
2022-08-18T16:33:54.901Z,31.50
2022-08-18T16:36:25.411Z,31.49
2022-08-18T16:38:53.572Z,31.51
2022-08-18T16:41:20.348Z,31.50
2022-08-18T16:43:47.441Z,31.52
2022-08-18T16:46:18.246Z,31.50
2022-08-18T16:48:45.839Z,31.51
2022-08-18T16:51:16.091Z,31.51
2022-08-18T16:53:43.229Z,31.50
2022-08-18T16:56:18.890Z,31.45
2022-08-18T16:59:05.261Z,31.47
2022-08-18T17:01:51.769Z,31.48
2022-08-18T17:04:25.841Z,31.45
2022-08-18T17:06:52.449Z,31.46
2022-08-18T17:09:19.980Z,31.46
2022-08-18T17:11:51.595Z,31.45
2022-08-18T17:14:23.136Z,31.43
2022-08-18T17:16:54.301Z,31.40
2022-08-18T17:19:23.310Z,31.39
2022-08-18T17:21:49.870Z,31.38
2022-08-18T17:24:18.104Z,31.37
2022-08-18T17:27:03.993Z,31.33
2022-08-18T17:29:48.236Z,31.32
2022-08-18T17:35:21.074Z,31.30
2022-08-18T17:38:15.102Z,31.27
2022-08-18T17:40:50.858Z,31.26
2022-08-18T17:43:20.117Z,31.23
2022-08-18T17:45:53.530Z,31.20
2022-08-18T17:48:32.170Z,31.15
2022-08-18T17:51:31.124Z,31.12
2022-08-18T17:54:00.953Z,31.15
2022-08-18T17:56:42.350Z,31.09
2022-08-18T17:59:45.514Z,31.09
2022-08-18T18:02:29.316Z,31.03
2022-08-18T18:05:07.575Z,31.03
2022-08-18T18:07:43.246Z,31.01
2022-08-18T18:10:14.295Z,31.01
2022-08-18T18:12:41.582Z,30.98
2022-08-18T18:15:12.043Z,30.95
2022-08-18T18:17:43.151Z,30.90
2022-08-18T18:20:24.509Z,30.88
2022-08-18T18:22:52.103Z,30.85
2022-08-18T18:25:34.716Z,30.76
2022-08-18T18:28:02.197Z,30.76
2022-08-18T18:30:32.743Z,30.70
2022-08-18T18:33:04.502Z,30.64
2022-08-18T18:35:53.265Z,30.60
2022-08-18T18:38:30.583Z,30.54
2022-08-18T18:41:16.961Z,30.43
2022-08-18T18:43:46.966Z,30.43
2022-08-18T18:46:35.211Z,30.33
2022-08-18T18:49:20.365Z,30.35
2022-08-18T18:51:52.797Z,30.29
2022-08-18T18:54:38.491Z,30.19
2022-08-18T18:57:31.953Z,30.13
2022-08-18T19:00:10.526Z,30.05
2022-08-18T19:02:49.064Z,29.94
2022-08-18T19:05:23.122Z,29.92
2022-08-18T19:08:14.197Z,29.83
2022-08-18T19:11:03.041Z,29.76
2022-08-18T19:13:39.717Z,29.72
2022-08-18T19:16:23.355Z,29.65
2022-08-18T19:18:57.656Z,29.62
2022-08-18T19:22:04.370Z,29.57
2022-08-18T19:24:39.288Z,29.53
2022-08-18T19:27:25.414Z,29.43
2022-08-18T19:29:56.276Z,29.43
2022-08-18T19:32:32.447Z,29.36
2022-08-18T19:35:01.167Z,29.34
2022-08-18T19:38:04.559Z,29.23
2022-08-18T19:40:52.846Z,29.17
2022-08-18T19:43:36.111Z,29.12
2022-08-18T19:46:12.061Z,29.08
2022-08-18T19:48:51.511Z,29.03
2022-08-18T19:51:39.226Z,28.98
2022-08-18T19:54:53.430Z,28.95
2022-08-18T19:57:22.414Z,28.93
2022-08-18T20:00:12.001Z,28.84
2022-08-18T20:03:15.791Z,28.80
2022-08-18T20:05:58.816Z,28.76
2022-08-18T20:09:09.613Z,28.73
2022-08-18T20:12:13.611Z,28.67
2022-08-18T20:14:42.970Z,28.66
2022-08-18T20:17:09.399Z,28.63
2022-08-18T20:19:35.917Z,28.59
2022-08-18T20:22:24.673Z,28.54
2022-08-18T20:25:27.771Z,28.51
2022-08-18T20:28:23.545Z,28.45
2022-08-18T20:31:06.083Z,28.41
2022-08-18T20:33:39.247Z,28.39
2022-08-18T20:36:24.495Z,28.36
2022-08-18T20:38:53.749Z,28.32
2022-08-18T20:41:23.205Z,28.27
2022-08-18T20:43:55.479Z,28.24
2022-08-18T20:46:36.219Z,28.17
2022-08-18T20:49:43.846Z,28.12
2022-08-18T20:52:15.246Z,28.13
2022-08-18T20:54:58.506Z,28.07
2022-08-18T20:57:34.878Z,28.06
2022-08-18T21:00:26.760Z,27.99
2022-08-18T21:02:59.481Z,27.97
2022-08-18T21:05:34.070Z,27.94
2022-08-18T21:08:03.272Z,27.92
2022-08-18T21:10:32.613Z,27.91
2022-08-18T21:13:05.608Z,27.87
2022-08-18T21:15:38.296Z,27.84
2022-08-18T21:18:16.443Z,27.85
2022-08-18T21:20:42.994Z,27.84
2022-08-18T21:23:12.913Z,27.82
2022-08-18T21:25:55.487Z,27.77
2022-08-18T21:28:25.369Z,27.78
2022-08-18T21:31:29.180Z,27.72
2022-08-18T21:33:57.353Z,27.71
2022-08-18T21:36:31.429Z,27.66
2022-08-18T21:39:15.882Z,27.58
2022-08-18T21:41:48.176Z,27.58
2022-08-18T21:44:16.822Z,27.55
2022-08-18T21:46:45.562Z,27.51
2022-08-18T21:49:12.499Z,27.45
2022-08-18T21:51:45.927Z,27.38
2022-08-18T21:54:18.176Z,27.34
2022-08-18T21:56:44.914Z,27.30
2022-08-18T21:59:17.179Z,27.24
2022-08-18T22:01:53.735Z,27.19
2022-08-18T22:04:33.591Z,27.13
2022-08-18T22:07:03.922Z,27.12
2022-08-18T22:09:53.686Z,27.07
2022-08-18T22:12:49.363Z,27.03
2022-08-18T22:15:36.501Z,26.96
2022-08-18T22:18:28.613Z,26.91
2022-08-18T22:20:57.694Z,26.86
2022-08-18T22:23:45.258Z,26.82
2022-08-18T22:26:16.464Z,26.75
2022-08-18T22:28:42.941Z,26.73
2022-08-18T22:31:09.464Z,26.69
2022-08-18T22:33:36.013Z,26.66
2022-08-18T22:36:03.795Z,26.62
2022-08-18T22:38:30.792Z,26.60
2022-08-18T22:40:59.694Z,26.57
2022-08-18T22:43:26.388Z,26.56
2022-08-18T22:45:53.321Z,26.53
2022-08-18T22:48:19.839Z,26.53
2022-08-18T22:50:46.883Z,26.52
2022-08-18T22:53:14.555Z,26.50
2022-08-18T22:55:41.490Z,26.49
2022-08-18T22:58:08.506Z,26.47
2022-08-18T23:00:37.910Z,26.46
2022-08-18T23:03:06.837Z,26.45
2022-08-18T23:05:33.365Z,26.43
2022-08-18T23:07:59.845Z,26.42
2022-08-18T23:10:26.592Z,26.41
2022-08-18T23:12:53.281Z,26.39
2022-08-18T23:15:20.316Z,26.37
2022-08-18T23:17:47.210Z,26.35
2022-08-18T23:20:19.172Z,26.31
2022-08-18T23:22:47.838Z,26.30
2022-08-18T23:25:14.499Z,26.28
2022-08-18T23:27:42.896Z,26.27
2022-08-18T23:30:09.638Z,26.27
2022-08-18T23:32:36.367Z,26.29
2022-08-18T23:35:02.987Z,26.23
2022-08-18T23:37:30.445Z,26.20
2022-08-18T23:39:57.157Z,26.15
2022-08-18T23:42:23.864Z,26.11
2022-08-18T23:44:50.397Z,26.08
2022-08-18T23:47:19.532Z,26.05
2022-08-18T23:49:46.358Z,26.01
2022-08-18T23:52:12.879Z,25.96
2022-08-18T23:54:39.406Z,25.94
2022-08-18T23:57:05.927Z,25.87
2022-08-18T23:59:32.528Z,25.86
